createdAt,value
2017-07-29T00:01:59.701Z,6.37
2017-07-29T00:04:25.997Z,6.30
2017-07-29T00:06:52.890Z,7.20
2017-07-29T00:09:19.711Z,7.73
2017-07-29T00:11:47.000Z,7.10
2017-07-29T00:14:13.347Z,7.13
2017-07-29T00:16:40.687Z,8.50
2017-07-29T00:19:07.171Z,8.10
2017-07-29T00:21:40.649Z,6.93
2017-07-29T00:24:06.927Z,8.00
2017-07-29T00:26:33.986Z,7.70
2017-07-29T00:29:01.055Z,6.00
2017-07-29T00:31:27.345Z,7.97
2017-07-29T00:33:53.712Z,5.87
2017-07-29T00:36:19.976Z,6.80
2017-07-29T00:38:46.442Z,7.20
2017-07-29T00:41:12.738Z,7.10
2017-07-29T00:43:39.118Z,6.07
2017-07-29T00:46:05.409Z,6.07
2017-07-29T00:48:31.703Z,5.60
2017-07-29T00:50:58.005Z,5.47
2017-07-29T00:53:24.276Z,5.47
2017-07-29T00:55:50.545Z,4.93
2017-07-29T00:58:16.829Z,4.50
2017-07-29T01:00:43.096Z,3.90
2017-07-29T01:03:09.361Z,3.60
2017-07-29T01:05:35.643Z,5.47
2017-07-29T01:08:02.308Z,3.77
2017-07-29T01:10:28.609Z,4.27
2017-07-29T01:12:54.877Z,2.80
2017-07-29T01:15:21.917Z,3.20
2017-07-29T01:17:48.203Z,4.37
2017-07-29T01:20:14.519Z,3.57
2017-07-29T01:22:40.810Z,3.33
2017-07-29T01:25:07.128Z,3.43
2017-07-29T01:27:33.400Z,3.63
2017-07-29T01:29:59.674Z,3.80
2017-07-29T01:32:26.949Z,2.80
2017-07-29T01:34:53.469Z,2.90
2017-07-29T01:37:20.002Z,3.27
2017-07-29T01:39:46.562Z,2.87
2017-07-29T01:42:13.077Z,3.40
2017-07-29T01:44:39.690Z,3.53
2017-07-29T01:47:06.127Z,2.93
2017-07-29T01:49:32.690Z,3.17
2017-07-29T01:51:59.224Z,2.90
2017-07-29T01:54:25.813Z,3.27
2017-07-29T01:56:52.326Z,3.10
2017-07-29T01:59:18.870Z,2.90
2017-07-29T02:01:45.489Z,2.47
2017-07-29T02:04:12.044Z,3.30
2017-07-29T02:06:38.586Z,3.10
2017-07-29T02:09:05.084Z,3.10
2017-07-29T02:11:31.641Z,2.90
2017-07-29T02:13:58.170Z,3.07
2017-07-29T02:16:24.694Z,2.50
2017-07-29T02:18:51.199Z,3.13
2017-07-29T02:21:17.731Z,3.40
2017-07-29T02:23:44.373Z,3.00
2017-07-29T02:26:11.866Z,3.00
2017-07-29T02:28:38.386Z,2.77
2017-07-29T02:31:04.951Z,2.83
2017-07-29T02:33:31.468Z,3.30
2017-07-29T02:35:58.029Z,2.90
2017-07-29T02:38:24.527Z,2.77
2017-07-29T02:40:52.213Z,3.10
2017-07-29T02:43:18.715Z,3.27
2017-07-29T02:45:47.734Z,3.13
2017-07-29T02:48:14.115Z,2.70
2017-07-29T02:50:40.412Z,3.20
2017-07-29T02:53:06.887Z,2.50
2017-07-29T02:55:33.384Z,2.70
2017-07-29T02:57:59.889Z,2.57
2017-07-29T03:00:26.404Z,3.47
2017-07-29T03:02:52.857Z,3.20
2017-07-29T03:05:19.375Z,3.30
2017-07-29T03:07:45.866Z,2.87
2017-07-29T03:10:13.206Z,3.40
2017-07-29T03:12:40.407Z,3.13
2017-07-29T03:15:06.921Z,3.10
2017-07-29T03:17:33.427Z,2.70
2017-07-29T03:20:00.038Z,2.90
2017-07-29T03:22:26.611Z,3.20
2017-07-29T03:24:53.173Z,3.10
2017-07-29T03:27:20.424Z,3.20
2017-07-29T03:29:46.924Z,3.53
2017-07-29T03:32:13.419Z,2.17
2017-07-29T03:34:39.928Z,3.63
2017-07-29T03:37:06.462Z,3.40
2017-07-29T03:39:33.026Z,2.80
2017-07-29T03:41:59.533Z,3.10
2017-07-29T03:44:26.109Z,2.73
2017-07-29T03:46:52.632Z,3.23
2017-07-29T03:49:19.136Z,3.20
2017-07-29T03:51:45.699Z,2.63
2017-07-29T03:54:12.232Z,2.90
2017-07-29T03:56:38.846Z,3.10
2017-07-29T03:59:05.383Z,2.80
2017-07-29T04:01:31.919Z,2.90
2017-07-29T04:03:58.408Z,3.27
2017-07-29T04:06:25.712Z,3.27
2017-07-29T04:08:52.313Z,2.93
2017-07-29T04:11:18.853Z,3.13
2017-07-29T04:13:45.394Z,2.97
2017-07-29T04:16:11.962Z,3.17
2017-07-29T04:18:38.485Z,3.20
2017-07-29T04:23:38.019Z,3.00
2017-07-29T04:26:04.798Z,2.97
2017-07-29T04:28:31.080Z,2.90
2017-07-29T04:30:57.369Z,3.30
2017-07-29T04:33:23.638Z,2.87
2017-07-29T04:35:50.628Z,3.00
2017-07-29T04:38:16.889Z,2.50
2017-07-29T04:40:43.152Z,2.97
2017-07-29T04:43:09.408Z,3.10
2017-07-29T04:45:36.402Z,2.80
2017-07-29T04:48:02.670Z,3.03
2017-07-29T04:50:28.961Z,3.40
2017-07-29T04:52:55.251Z,2.40
2017-07-29T04:55:22.125Z,3.37
2017-07-29T04:57:48.402Z,3.13
2017-07-29T05:00:17.262Z,3.10
2017-07-29T05:02:43.614Z,2.73
2017-07-29T05:05:09.890Z,2.63
2017-07-29T05:07:36.138Z,2.80
2017-07-29T05:10:02.413Z,3.00
2017-07-29T05:12:28.679Z,3.23
2017-07-29T05:14:55.245Z,2.80
2017-07-29T05:17:22.529Z,3.23
2017-07-29T05:19:48.805Z,2.90
2017-07-29T05:22:16.073Z,3.17
2017-07-29T05:24:42.577Z,2.60
2017-07-29T05:27:10.795Z,2.47
2017-07-29T05:29:37.185Z,3.13
2017-07-29T05:32:03.502Z,3.17
2017-07-29T05:34:29.782Z,3.10
2017-07-29T05:36:56.896Z,3.30
2017-07-29T05:39:23.203Z,2.80
2017-07-29T05:41:50.541Z,3.30
2017-07-29T05:44:17.043Z,3.10
2017-07-29T05:46:43.594Z,3.07
2017-07-29T05:49:10.852Z,3.17
2017-07-29T05:51:38.092Z,3.10
2017-07-29T05:54:04.621Z,2.80
2017-07-29T05:56:31.826Z,2.97
2017-07-29T05:58:58.142Z,2.90
2017-07-29T06:01:24.654Z,2.67
2017-07-29T06:03:51.172Z,2.80
2017-07-29T06:06:17.955Z,3.07
2017-07-29T06:08:44.472Z,3.40
2017-07-29T06:11:10.986Z,2.97
2017-07-29T06:13:37.502Z,3.07
2017-07-29T06:16:04.735Z,3.10
2017-07-29T06:18:31.039Z,2.73
2017-07-29T06:20:57.318Z,3.20
2017-07-29T06:23:24.570Z,2.50
2017-07-29T06:25:51.038Z,2.60
2017-07-29T06:28:17.571Z,3.10
2017-07-29T06:30:44.101Z,3.03
2017-07-29T06:33:11.330Z,3.50
2017-07-29T06:35:37.789Z,2.80
2017-07-29T06:38:05.026Z,2.70
2017-07-29T06:40:31.381Z,3.13
2017-07-29T06:42:57.914Z,2.90
2017-07-29T06:45:24.464Z,3.17
2017-07-29T06:47:50.992Z,2.87
2017-07-29T06:50:18.201Z,2.30
2017-07-29T06:52:44.712Z,3.13
2017-07-29T06:55:11.165Z,3.00
2017-07-29T06:57:38.394Z,2.70
2017-07-29T07:00:04.675Z,2.63
2017-07-29T07:02:31.212Z,3.17
2017-07-29T07:04:57.793Z,2.90
2017-07-29T07:07:24.304Z,2.60
2017-07-29T07:09:50.869Z,2.80
2017-07-29T07:12:17.279Z,2.80
2017-07-29T07:14:43.775Z,2.83
2017-07-29T07:17:10.322Z,2.80
2017-07-29T07:19:37.863Z,2.83
2017-07-29T07:22:04.509Z,2.87
2017-07-29T07:24:31.766Z,3.07
2017-07-29T07:26:59.014Z,3.10
2017-07-29T07:29:25.269Z,3.13
2017-07-29T07:31:51.803Z,3.43
2017-07-29T07:34:19.125Z,2.50
2017-07-29T07:36:45.813Z,2.30
2017-07-29T07:39:13.133Z,2.43
2017-07-29T07:41:39.627Z,2.40
2017-07-29T07:44:06.103Z,2.60
2017-07-29T07:46:32.595Z,3.00
2017-07-29T07:48:59.206Z,3.10
2017-07-29T07:51:26.582Z,3.13
2017-07-29T07:53:52.882Z,2.50
2017-07-29T07:56:19.375Z,3.27
2017-07-29T07:58:46.953Z,3.27
2017-07-29T08:01:13.475Z,2.93
2017-07-29T08:03:40.109Z,3.20
2017-07-29T08:06:06.708Z,2.97
2017-07-29T08:08:33.198Z,2.83
2017-07-29T08:11:00.533Z,3.23
2017-07-29T08:13:27.174Z,3.03
2017-07-29T08:15:53.825Z,2.60
2017-07-29T08:18:20.435Z,2.70
2017-07-29T08:20:47.065Z,2.90
2017-07-29T08:23:13.641Z,2.70
2017-07-29T08:25:40.272Z,3.20
2017-07-29T08:28:08.857Z,2.77
2017-07-29T08:30:36.108Z,2.93
2017-07-29T08:33:02.659Z,2.80
2017-07-29T08:35:29.210Z,3.27
2017-07-29T08:37:56.147Z,2.90
2017-07-29T08:40:23.033Z,3.23
2017-07-29T08:42:49.515Z,2.50
2017-07-29T08:45:16.748Z,2.80
2017-07-29T08:47:43.249Z,2.50
2017-07-29T08:50:10.461Z,2.87
2017-07-29T08:52:36.984Z,3.43
2017-07-29T08:55:03.523Z,4.20
2017-07-29T08:57:30.091Z,2.80
2017-07-29T08:59:56.604Z,3.30
2017-07-29T09:02:23.651Z,2.60
2017-07-29T09:04:50.137Z,2.97
2017-07-29T09:07:16.639Z,3.10
2017-07-29T09:09:43.097Z,2.90
2017-07-29T09:12:09.585Z,3.10
2017-07-29T09:14:36.132Z,2.93
2017-07-29T09:17:02.627Z,2.50
2017-07-29T09:19:32.930Z,3.47
2017-07-29T09:22:00.633Z,2.40
2017-07-29T09:24:27.157Z,2.67
2017-07-29T09:26:53.638Z,3.27
2017-07-29T09:29:20.206Z,2.57
2017-07-29T09:31:46.834Z,2.47
2017-07-29T09:34:13.338Z,2.80
2017-07-29T09:36:39.881Z,2.83
2017-07-29T09:39:06.460Z,3.03
2017-07-29T09:41:32.922Z,2.60
2017-07-29T09:44:00.149Z,2.60
2017-07-29T09:46:26.649Z,2.70
2017-07-29T09:48:53.157Z,2.20
2017-07-29T09:51:19.658Z,2.40
2017-07-29T09:53:46.172Z,2.10
2017-07-29T09:56:12.734Z,2.30
2017-07-29T09:58:39.217Z,2.47
2017-07-29T10:01:05.798Z,2.70
2017-07-29T10:03:32.355Z,2.30
2017-07-29T10:05:58.825Z,2.97
2017-07-29T10:08:25.297Z,2.63
2017-07-29T10:10:51.837Z,2.50
2017-07-29T10:13:18.292Z,2.30
2017-07-29T10:15:45.542Z,2.50
2017-07-29T10:18:12.046Z,2.90
2017-07-29T10:20:38.562Z,3.17
2017-07-29T10:23:05.102Z,2.77
2017-07-29T10:25:32.330Z,3.13
2017-07-29T10:27:59.572Z,2.87
2017-07-29T10:30:26.058Z,2.47
2017-07-29T10:32:52.553Z,2.27
2017-07-29T10:35:19.065Z,2.33
2017-07-29T10:37:45.636Z,2.67
2017-07-29T10:40:12.136Z,2.40
2017-07-29T10:42:38.631Z,2.70
2017-07-29T10:45:05.149Z,2.20
2017-07-29T10:47:31.617Z,3.23
2017-07-29T10:49:58.872Z,2.13
2017-07-29T10:52:26.094Z,1.90
2017-07-29T10:54:52.564Z,2.43
2017-07-29T10:57:19.076Z,2.30
2017-07-29T10:59:45.558Z,2.00
2017-07-29T11:02:12.062Z,1.83
2017-07-29T11:04:38.852Z,2.00
2017-07-29T11:07:05.310Z,2.57
2017-07-29T11:09:31.785Z,1.93
2017-07-29T11:11:58.373Z,1.70
2017-07-29T11:14:24.841Z,1.70
2017-07-29T11:16:52.359Z,1.73
2017-07-29T11:19:18.834Z,2.10
2017-07-29T11:21:45.321Z,2.00
2017-07-29T11:24:11.840Z,1.90
2017-07-29T11:26:38.368Z,1.70
2017-07-29T11:29:04.921Z,1.40
2017-07-29T11:31:31.833Z,2.10
2017-07-29T11:33:59.045Z,2.17
2017-07-29T11:36:25.510Z,1.57
2017-07-29T11:38:51.996Z,1.70
2017-07-29T11:41:18.537Z,1.50
2017-07-29T11:43:45.051Z,1.53
2017-07-29T11:46:11.583Z,1.80
2017-07-29T11:48:38.850Z,1.60
2017-07-29T11:51:05.321Z,1.63
2017-07-29T11:53:31.824Z,1.50
2017-07-29T11:55:58.309Z,1.73
2017-07-29T11:58:24.820Z,1.63
2017-07-29T12:00:51.309Z,1.20
2017-07-29T12:03:17.795Z,1.40
2017-07-29T12:05:44.302Z,1.30
2017-07-29T12:08:10.837Z,1.20
2017-07-29T12:10:37.319Z,1.40
2017-07-29T12:13:03.834Z,1.30
2017-07-29T12:15:31.046Z,1.20
2017-07-29T12:17:57.551Z,1.10
2017-07-29T12:20:24.128Z,0.97
2017-07-29T12:22:50.701Z,1.10
2017-07-29T12:25:17.948Z,1.10
2017-07-29T12:27:44.451Z,1.20
2017-07-29T12:30:11.380Z,0.87
2017-07-29T12:32:37.864Z,2.60
2017-07-29T12:35:05.115Z,1.47
2017-07-29T12:37:31.651Z,1.33
2017-07-29T12:39:58.145Z,1.13
2017-07-29T12:42:24.669Z,1.13
2017-07-29T12:44:51.133Z,1.40
2017-07-29T12:47:17.715Z,1.03
2017-07-29T12:49:44.197Z,1.27
2017-07-29T12:52:11.073Z,1.20
2017-07-29T12:54:37.567Z,1.10
2017-07-29T12:57:04.340Z,1.20
2017-07-29T12:59:31.594Z,2.00
2017-07-29T13:01:58.150Z,1.10
2017-07-29T13:04:25.325Z,1.30
2017-07-29T13:06:52.570Z,1.00
2017-07-29T13:09:18.861Z,1.40
2017-07-29T13:11:45.440Z,1.30
2017-07-29T13:14:11.933Z,1.20
2017-07-29T13:16:38.423Z,1.27
2017-07-29T13:19:04.968Z,1.23
2017-07-29T13:21:35.390Z,1.23
2017-07-29T13:24:01.839Z,1.33
2017-07-29T13:26:28.131Z,1.10
2017-07-29T13:28:54.381Z,1.40
2017-07-29T13:31:20.616Z,1.30
2017-07-29T13:33:47.160Z,1.40
2017-07-29T13:36:13.531Z,1.33
2017-07-29T13:38:39.782Z,1.37
2017-07-29T13:41:06.197Z,1.10
2017-07-29T13:43:32.622Z,1.10
2017-07-29T13:45:59.276Z,1.47
2017-07-29T13:48:25.741Z,1.40
2017-07-29T13:50:52.790Z,1.27
2017-07-29T13:53:19.499Z,1.80
2017-07-29T13:55:46.133Z,1.53
2017-07-29T13:58:12.630Z,1.20
2017-07-29T14:00:39.096Z,1.77
2017-07-29T14:03:05.598Z,1.73
2017-07-29T14:05:32.069Z,1.83
2017-07-29T14:07:58.599Z,1.30
2017-07-29T14:10:25.089Z,1.13
2017-07-29T14:12:51.554Z,1.73
2017-07-29T14:15:18.014Z,1.50
2017-07-29T14:17:44.509Z,1.50
2017-07-29T14:20:11.750Z,1.80
2017-07-29T14:22:38.270Z,1.60
2017-07-29T14:25:04.734Z,1.90
2017-07-29T14:27:31.203Z,1.87
2017-07-29T14:29:57.705Z,2.00
2017-07-29T14:32:24.221Z,2.10
2017-07-29T14:34:50.717Z,2.40
2017-07-29T14:37:17.230Z,3.17
2017-07-29T14:39:43.713Z,2.30
2017-07-29T14:42:10.223Z,2.23
2017-07-29T14:44:37.462Z,1.97
2017-07-29T14:47:03.967Z,2.17
2017-07-29T14:49:30.455Z,2.30
2017-07-29T14:51:56.966Z,2.50
2017-07-29T14:54:23.396Z,2.30
2017-07-29T14:56:49.841Z,2.70
2017-07-29T14:59:16.353Z,2.67
2017-07-29T15:01:42.829Z,2.43
2017-07-29T15:04:10.148Z,2.60
2017-07-29T15:06:36.598Z,2.50
2017-07-29T15:09:03.178Z,2.80
2017-07-29T15:11:29.699Z,2.50
2017-07-29T15:13:56.233Z,2.70
2017-07-29T15:16:22.729Z,2.70
2017-07-29T15:18:49.218Z,3.30
2017-07-29T15:21:15.705Z,2.87
2017-07-29T15:23:42.163Z,2.87
2017-07-29T15:26:08.653Z,2.83
2017-07-29T15:28:35.102Z,3.53
2017-07-29T15:31:01.591Z,2.80
2017-07-29T15:33:28.065Z,3.17
2017-07-29T15:35:54.658Z,3.33
2017-07-29T15:38:21.153Z,2.60
2017-07-29T15:40:50.786Z,2.63
2017-07-29T15:43:18.038Z,2.50
2017-07-29T15:45:45.253Z,2.60
2017-07-29T15:48:11.797Z,2.03
2017-07-29T15:50:38.356Z,2.27
2017-07-29T15:53:04.940Z,2.23
2017-07-29T15:55:31.432Z,2.60
2017-07-29T15:57:58.707Z,2.50
2017-07-29T16:00:25.167Z,2.13
2017-07-29T16:02:51.772Z,1.60
2017-07-29T16:05:18.254Z,2.50
2017-07-29T16:07:45.078Z,2.50
2017-07-29T16:10:11.662Z,2.00
2017-07-29T16:12:38.205Z,2.50
2017-07-29T16:15:05.055Z,2.60
2017-07-29T16:17:31.710Z,2.70
2017-07-29T16:19:58.230Z,2.00
2017-07-29T16:22:24.779Z,2.70
2017-07-29T16:24:51.304Z,2.03
2017-07-29T16:27:17.833Z,2.10
2017-07-29T16:29:45.086Z,2.10
2017-07-29T16:32:11.590Z,2.23
2017-07-29T16:34:38.093Z,1.80
2017-07-29T16:37:04.632Z,2.40
2017-07-29T16:39:31.227Z,2.30
2017-07-29T16:41:58.551Z,2.10
2017-07-29T16:44:25.090Z,2.50
2017-07-29T16:46:51.699Z,2.80
2017-07-29T16:49:18.205Z,2.50
2017-07-29T16:51:44.748Z,3.60
2017-07-29T16:54:11.242Z,2.30
2017-07-29T16:56:37.733Z,2.57
2017-07-29T16:59:04.221Z,2.30
2017-07-29T17:01:30.950Z,2.57
2017-07-29T17:03:57.627Z,2.30
2017-07-29T17:06:24.219Z,2.40
2017-07-29T17:08:50.794Z,2.13
2017-07-29T17:11:17.338Z,2.17
2017-07-29T17:13:44.553Z,2.10
2017-07-29T17:16:11.083Z,2.20
2017-07-29T17:18:37.574Z,2.70
2017-07-29T17:21:04.212Z,1.93
2017-07-29T17:23:30.714Z,2.57
2017-07-29T17:25:57.238Z,2.20
2017-07-29T17:28:23.734Z,2.20
2017-07-29T17:30:50.268Z,2.10
2017-07-29T17:33:16.750Z,2.60
2017-07-29T17:35:43.944Z,2.27
2017-07-29T17:38:10.417Z,1.80
2017-07-29T17:40:36.896Z,1.77
2017-07-29T17:43:03.402Z,1.90
2017-07-29T17:45:30.642Z,1.90
2017-07-29T17:47:57.914Z,2.50
2017-07-29T17:50:24.434Z,2.47
2017-07-29T17:52:50.963Z,2.40
2017-07-29T17:55:17.510Z,2.43
2017-07-29T17:57:44.292Z,2.27
2017-07-29T18:00:11.636Z,2.00
2017-07-29T18:02:44.164Z,2.03
2017-07-29T18:05:10.718Z,2.60
2017-07-29T18:07:37.341Z,2.13
2017-07-29T18:10:03.829Z,2.47
2017-07-29T18:12:30.413Z,2.50
2017-07-29T18:14:56.905Z,2.50
2017-07-29T18:17:26.963Z,2.30
2017-07-29T18:19:53.621Z,2.13
2017-07-29T18:22:20.931Z,2.30
2017-07-29T18:24:48.182Z,3.07
2017-07-29T18:27:14.695Z,2.00
2017-07-29T18:29:46.048Z,2.60
2017-07-29T18:32:12.349Z,2.50
2017-07-29T18:34:39.406Z,2.90
2017-07-29T18:37:18.039Z,2.77
2017-07-29T18:39:46.324Z,3.00
2017-07-29T18:42:12.670Z,2.50
2017-07-29T18:44:39.710Z,3.10
2017-07-29T18:47:07.213Z,3.40
2017-07-29T18:49:34.473Z,3.17
2017-07-29T18:52:01.599Z,2.90
2017-07-29T18:54:28.974Z,2.90
2017-07-29T18:56:55.266Z,2.50
2017-07-29T18:59:21.634Z,2.87
2017-07-29T19:01:48.070Z,3.00
2017-07-29T19:04:14.361Z,3.10
2017-07-29T19:06:40.781Z,2.90
2017-07-29T19:09:07.117Z,2.80
2017-07-29T19:11:33.441Z,3.23
2017-07-29T19:13:59.810Z,2.97
2017-07-29T19:16:26.287Z,2.90
2017-07-29T19:18:52.663Z,3.63
2017-07-29T19:21:18.960Z,2.90
2017-07-29T19:23:45.317Z,3.10
2017-07-29T19:26:12.325Z,3.90
2017-07-29T19:28:38.600Z,3.43
2017-07-29T19:31:05.118Z,3.50
2017-07-29T19:33:31.420Z,3.90
2017-07-29T19:35:57.868Z,3.57
2017-07-29T19:38:24.280Z,3.87
2017-07-29T19:40:50.763Z,4.40
2017-07-29T19:43:17.778Z,3.67
2017-07-29T19:45:44.521Z,3.77
2017-07-29T19:48:11.729Z,4.10
2017-07-29T19:50:38.029Z,3.20
2017-07-29T19:53:04.274Z,3.70
2017-07-29T19:55:30.556Z,3.87
2017-07-29T19:57:56.943Z,3.27
2017-07-29T20:00:23.212Z,3.77
2017-07-29T20:02:49.473Z,3.30
2017-07-29T20:05:15.768Z,3.50
2017-07-29T20:07:42.115Z,3.00
2017-07-29T20:10:08.459Z,2.90
2017-07-29T20:12:34.697Z,3.10
2017-07-29T20:15:01.065Z,3.40
2017-07-29T20:17:27.337Z,3.50
2017-07-29T20:19:53.646Z,3.40
2017-07-29T20:22:20.962Z,2.90
2017-07-29T20:24:48.670Z,2.97
2017-07-29T20:27:15.030Z,2.93
2017-07-29T20:29:41.351Z,3.17
2017-07-29T20:32:07.970Z,3.23
2017-07-29T20:34:34.551Z,2.97
2017-07-29T20:37:00.985Z,2.80
2017-07-29T20:39:27.345Z,2.90
2017-07-29T20:41:54.439Z,2.77
2017-07-29T20:44:20.811Z,2.37
2017-07-29T20:46:47.134Z,2.90
2017-07-29T20:49:13.731Z,2.40
2017-07-29T20:51:40.018Z,2.00
2017-07-29T20:54:06.330Z,2.07
2017-07-29T20:56:32.662Z,2.50
2017-07-29T20:58:59.066Z,2.37
2017-07-29T21:01:25.475Z,2.10
2017-07-29T21:03:51.778Z,2.47
2017-07-29T21:06:18.120Z,2.67
2017-07-29T21:08:44.401Z,2.30
2017-07-29T21:11:10.713Z,2.67
2017-07-29T21:13:36.981Z,2.33
2017-07-29T21:16:03.281Z,2.30
2017-07-29T21:18:29.573Z,2.63
2017-07-29T21:20:55.845Z,2.67
2017-07-29T21:23:22.097Z,2.40
2017-07-29T21:25:48.385Z,2.30
2017-07-29T21:28:14.656Z,2.40
2017-07-29T21:30:40.985Z,3.00
2017-07-29T21:33:07.266Z,2.27
2017-07-29T21:35:33.580Z,2.50
2017-07-29T21:37:59.975Z,2.20
2017-07-29T21:40:26.807Z,2.10
2017-07-29T21:42:53.086Z,2.07
2017-07-29T21:45:20.082Z,2.10
2017-07-29T21:47:47.196Z,2.47
2017-07-29T21:50:13.575Z,2.17
2017-07-29T21:52:39.844Z,2.50
2017-07-29T21:55:06.175Z,2.10
2017-07-29T21:57:33.189Z,1.73
2017-07-29T21:59:59.440Z,2.10
2017-07-29T22:02:25.796Z,2.40
2017-07-29T22:04:52.041Z,2.03
2017-07-29T22:07:18.320Z,2.20
2017-07-29T22:09:44.686Z,2.17
2017-07-29T22:12:11.669Z,2.20
2017-07-29T22:14:37.932Z,2.40
2017-07-29T22:17:04.190Z,3.53
2017-07-29T22:19:30.452Z,1.93
2017-07-29T22:21:57.515Z,2.00
2017-07-29T22:24:23.869Z,1.73
2017-07-29T22:26:50.172Z,2.57
2017-07-29T22:29:18.565Z,2.30
2017-07-29T22:31:44.934Z,2.20
2017-07-29T22:34:11.232Z,2.57
2017-07-29T22:36:37.495Z,2.20
2017-07-29T22:39:03.820Z,2.10
2017-07-29T22:41:30.120Z,2.47
2017-07-29T22:43:56.406Z,2.13
2017-07-29T22:46:22.654Z,2.97
2017-07-29T22:48:48.989Z,2.37
2017-07-29T22:51:16.224Z,2.50
2017-07-29T22:53:42.595Z,2.27
2017-07-29T22:56:08.859Z,3.07
2017-07-29T22:58:36.092Z,1.97
2017-07-29T23:01:02.475Z,2.30
2017-07-29T23:03:28.854Z,2.40
2017-07-29T23:05:55.354Z,2.90
2017-07-29T23:08:21.821Z,2.47
2017-07-29T23:10:48.446Z,2.87
2017-07-29T23:13:14.992Z,2.80
2017-07-29T23:15:41.508Z,1.90
2017-07-29T23:18:08.054Z,2.60
2017-07-29T23:20:34.529Z,2.53
2017-07-29T23:23:01.066Z,2.97
2017-07-29T23:25:27.558Z,2.67
2017-07-29T23:27:54.045Z,2.73
2017-07-29T23:30:20.672Z,2.60
2017-07-29T23:32:47.181Z,2.37
2017-07-29T23:35:13.723Z,2.93
2017-07-29T23:37:40.589Z,2.10
2017-07-29T23:40:07.100Z,2.53
2017-07-29T23:42:33.573Z,2.63
2017-07-29T23:45:00.073Z,2.43
2017-07-29T23:47:26.537Z,2.70
2017-07-29T23:49:53.014Z,2.93
2017-07-29T23:52:20.233Z,3.03
2017-07-29T23:54:46.741Z,2.50
2017-07-29T23:57:13.973Z,2.60
2017-07-29T23:59:40.449Z,2.80
